Time;durP1;ratioP1;P1;durP2;ratioP2;P2;SDS_P1;SDS_P2;PMS_P1;PMS_P2;Temp;Humidity;BMP_temperature;BMP_pressure;BME280_temperature;BME280_humidity;BME280_pressure;Samples;Min_cycle;Max_cycle;Signal;HPM_P1;HPM_P2
2020/12/04 00:04:33;;;;;;;62.55;26.87;;;;;;;-1.15;100.00;98043.01;4462807;78;43253;-80
2020/12/04 00:10:35;;;;;;;65.17;26.97;;;;;;;-1.12;100.00;98057.98;4496126;78;43415;-81
2020/12/04 00:16:37;;;;;;;61.65;25.95;;;;;;;-0.99;100.00;98053.90;4508019;78;43064;-79
2020/12/04 00:22:40;;;;;;;59.15;26.77;;;;;;;-1.03;100.00;98050.83;4494492;78;42323;-82
2020/12/04 00:28:42;;;;;;;53.23;25.88;;;;;;;-1.26;100.00;98023.98;4486688;78;43233;-81
2020/12/04 00:34:45;;;;;;;62.95;27.48;;;;;;;-1.57;100.00;98032.83;4504274;78;43484;-81
2020/12/04 00:40:51;;;;;;;57.33;26.20;;;;;;;-1.37;100.00;98022.30;4435596;78;43581;-81
2020/12/04 00:47:02;;;;;;;69.20;28.60;;;;;;;-1.34;100.00;98011.39;4408372;78;44115;-81
2020/12/04 00:53:07;;;;;;;72.65;32.42;;;;;;;-1.23;100.00;98000.39;4488437;78;44079;-81
2020/12/04 00:59:11;;;;;;;;;;;;;;;-1.02;100.00;97986.50;4495065;78;28595;-82
2020/12/04 01:05:13;;;;;;;59.60;25.12;;;;;;;-1.05;100.00;97972.33;4486704;78;42851;-81
2020/12/04 01:11:21;;;;;;;59.20;26.33;;;;;;;-1.03;100.00;97980.91;4490356;78;42441;-81
2020/12/04 01:17:23;;;;;;;55.43;24.20;;;;;;;-0.92;100.00;97992.80;4469558;78;44122;-81
2020/12/04 01:23:25;;;;;;;63.78;26.97;;;;;;;-1.20;100.00;97989.98;4501194;78;43312;-81
2020/12/04 01:29:27;;;;;;;55.12;24.07;;;;;;;-1.16;100.00;97964.88;4511943;78;44105;-81
2020/12/04 01:35:29;;;;;;;56.30;24.67;;;;;;;-1.20;100.00;97965.73;4512661;78;44093;-82
2020/12/04 01:41:36;;;;;;;61.15;26.05;;;;;;;-1.22;100.00;97945.31;4512407;79;43079;-82
2020/12/04 01:47:38;;;;;;;51.50;23.67;;;;;;;-1.25;100.00;97965.47;4510200;78;44046;-82
2020/12/04 01:53:44;;;;;;;57.85;25.97;;;;;;;-1.10;100.00;97952.77;4512354;78;43206;-80
2020/12/04 01:59:45;;;;;;;54.80;24.20;;;;;;;-1.26;100.00;97955.41;4512049;78;28582;-80
2020/12/04 02:06:04;;;;;;;59.50;24.85;;;;;;;-1.42;100.00;97942.41;4496167;78;44077;-81
2020/12/04 02:12:08;;;;;;;58.02;25.72;;;;;;;-1.34;100.00;97921.72;4498935;78;43206;-79
2020/12/04 02:18:11;;;;;;;50.15;22.85;;;;;;;-1.62;100.00;97926.29;4508026;78;44500;-80
2020/12/04 02:24:14;;;;;;;53.70;24.52;;;;;;;-1.51;100.00;97908.73;4501911;78;44125;-81
2020/12/04 02:30:33;;;;;;;57.03;25.30;;;;;;;-1.82;100.00;97914.97;4510710;78;43238;-81
2020/12/04 02:36:35;;;;;;;54.60;24.52;;;;;;;-1.71;100.00;97913.70;4512427;78;44153;-81
2020/12/04 02:42:39;;;;;;;47.30;22.17;;;;;;;-1.85;100.00;97899.50;4510090;78;43805;-80
2020/12/04 02:48:42;;;;;;;53.25;23.22;;;;;;;-2.22;100.00;97877.45;4502300;78;28538;-83
2020/12/04 02:54:44;;;;;;;51.65;23.45;;;;;;;-2.30;100.00;97862.52;4499143;78;43577;-81
2020/12/04 03:00:46;;;;;;;49.33;22.62;;;;;;;-2.13;100.00;97862.70;4513603;78;44500;-79
2020/12/04 03:06:48;;;;;;;50.63;22.58;;;;;;;-2.08;100.00;97859.53;4482561;78;43577;-79
2020/12/04 03:12:51;;;;;;;49.27;22.00;;;;;;;-1.92;100.00;97863.83;4512288;78;44461;-79
2020/12/04 03:18:53;;;;;;;51.08;22.13;;;;;;;-1.91;100.00;97864.66;4504312;78;43553;-80
2020/12/04 03:24:55;;;;;;;48.05;21.57;;;;;;;-2.00;100.00;97856.83;4513090;78;43774;-81
2020/12/04 03:30:59;;;;;;;53.40;23.15;;;;;;;-2.09;100.00;97861.85;4513763;79;44119;-80
2020/12/04 03:37:01;;;;;;;46.18;21.02;;;;;;;-2.30;100.00;97862.52;4514156;78;43821;-80
2020/12/04 03:43:03;;;;;;;44.83;21.33;;;;;;;-2.25;100.00;97847.02;4485212;78;43774;-84
2020/12/04 03:49:06;;;;;;;47.30;21.07;;;;;;;-2.18;100.00;97849.27;4528037;78;43750;-83
2020/12/04 03:55:08;;;;;;;47.00;19.92;;;;;;;-2.15;100.00;97854.17;4495756;78;43731;-80
2020/12/04 04:01:11;;;;;;;40.55;18.12;;;;;;;-2.12;100.00;97847.22;4509059;78;44545;-81
2020/12/04 04:07:13;;;;;;;38.75;18.02;;;;;;;-2.13;100.00;97856.63;4468754;78;44448;-80
2020/12/04 04:13:15;;;;;;;38.55;17.37;;;;;;;-1.82;100.00;97841.19;4513391;79;44472;-82
2020/12/04 04:19:17;;;;;;;39.23;17.37;;;;;;;-1.96;100.00;97850.20;4513203;79;44424;-82
2020/12/04 04:25:20;;;;;;;41.73;18.20;;;;;;;-1.73;100.00;97851.14;4472996;79;43679;-81
2020/12/04 04:31:22;;;;;;;42.10;18.85;;;;;;;-1.99;100.00;97848.41;4500822;78;42988;-81
2020/12/04 04:37:24;;;;;;;42.67;18.15;;;;;;;-2.49;100.00;97837.02;4502345;78;43668;-81
2020/12/04 04:43:26;;;;;;;45.12;20.10;;;;;;;-2.59;100.00;97833.80;4489335;78;43754;-81
2020/12/04 04:49:33;;;;;;;47.33;21.48;;;;;;;-2.59;100.00;97831.17;4504232;78;43789;-81
2020/12/04 04:55:34;;;;;;;45.48;19.57;;;;;;;-2.58;100.00;97829.66;4511599;78;43762;-83
2020/12/04 05:01:37;;;;;;;42.98;19.45;;;;;;;-2.47;100.00;97825.81;4491711;79;43669;-85
2020/12/04 05:07:42;;;;;;;40.05;18.25;;;;;;;-2.59;100.00;97842.50;4481915;78;28539;-82
2020/12/04 05:13:44;;;;;;;41.98;18.90;;;;;;;-2.67;100.00;97840.76;4512472;78;42902;-82
2020/12/04 05:19:46;;;;;;;41.75;19.40;;;;;;;-2.69;100.00;97830.91;4502075;78;43640;-81
2020/12/04 05:25:54;;;;;;;41.73;20.57;;;;;;;-2.73;100.00;97828.80;4513590;78;43758;-81
2020/12/04 05:31:58;;;;;;;47.05;20.72;;;;;;;-2.70;100.00;97823.18;4491455;79;43769;-81
2020/12/04 05:38:14;;;;;;;52.85;24.00;;;;;;;-2.70;100.00;97842.43;4483293;78;44144;-80
2020/12/04 05:44:17;;;;;;;;;;;;;;;-2.69;100.00;97847.18;4513434;79;28916;-81
2020/12/04 05:50:19;;;;;;;47.27;19.48;;;;;;;-2.76;100.00;97848.38;4505388;78;43770;-79
2020/12/04 05:56:22;;;;;;;42.98;20.05;;;;;;;-2.61;100.00;97831.83;4513894;77;43743;-81
2020/12/04 06:02:26;;;;;;;56.80;23.53;;;;;;;-2.81;100.00;97827.05;4424532;78;34416;-80
2020/12/04 06:08:29;;;;;;;52.05;21.35;;;;;;;-2.67;100.00;97817.55;4513486;78;43565;-80
2020/12/04 06:14:31;;;;;;;48.63;20.02;;;;;;;-2.87;100.00;97841.70;4496976;78;43742;-81
2020/12/04 06:20:51;;;;;;;41.88;19.52;;;;;;;-2.52;100.00;97848.70;4492430;78;43722;-81
2020/12/04 06:26:53;;;;;;;42.50;18.85;;;;;;;-2.59;100.00;97846.97;4506186;78;43770;-81
2020/12/04 06:32:55;;;;;;;43.00;19.40;;;;;;;-2.92;100.00;97848.47;4513212;78;43762;-81
2020/12/04 06:38:59;;;;;;;44.03;20.20;;;;;;;-2.72;100.00;97865.96;4512573;78;43802;-81
2020/12/04 06:45:01;;;;;;;46.10;19.85;;;;;;;-2.45;100.00;97859.34;4501544;78;43851;-81
2020/12/04 06:51:03;;;;;;;42.05;19.60;;;;;;;-2.53;100.00;97852.82;4513131;78;43799;-81
2020/12/04 06:57:07;;;;;;;50.38;21.27;;;;;;;-2.52;100.00;97864.50;4512599;78;44436;-80
2020/12/04 07:03:09;;;;;;;42.50;19.17;;;;;;;-2.31;100.00;97866.14;4503415;78;43806;-80
2020/12/04 07:09:13;;;;;;;44.73;19.48;;;;;;;-2.01;100.00;97896.03;4510663;78;43762;-79
2020/12/04 07:15:15;;;;;;;46.77;20.88;;;;;;;-2.06;100.00;97906.78;4511335;79;43770;-79
2020/12/04 07:21:18;;;;;;;42.13;19.82;;;;;;;-1.70;100.00;97916.65;4540992;78;43675;-78
2020/12/04 07:27:27;;;;;;;42.20;19.32;;;;;;;-1.73;100.00;97923.61;4496749;78;43726;-78
2020/12/04 07:33:29;;;;;;;49.33;21.60;;;;;;;-1.58;100.00;97909.94;4492655;78;43988;-77
2020/12/04 07:39:35;;;;;;;53.90;25.15;;;;;;;-1.31;100.00;97899.77;4494089;78;43235;-78
2020/12/04 07:45:37;;;;;;;55.15;24.52;;;;;;;-0.98;100.00;97913.08;4516916;77;44092;-81
2020/12/04 07:51:41;;;;;;;51.05;24.35;;;;;;;-0.62;100.00;97918.86;4523473;78;43581;-80
2020/12/04 07:58:08;;;;;;;53.85;25.05;;;;;;;-0.36;100.00;97914.88;4397145;80;28646;-81
2020/12/04 08:04:11;;;;;;;57.03;26.45;;;;;;;-0.20;100.00;97922.22;4391838;80;43587;-81
2020/12/04 08:10:17;;;;;;;51.48;24.55;;;;;;;-0.02;100.00;97889.55;4368914;80;44090;-80
2020/12/04 08:16:19;;;;;;;50.75;23.25;;;;;;;0.18;100.00;97914.01;4312706;81;44424;-80
2020/12/04 08:22:30;;;;;;;56.33;26.45;;;;;;;0.37;100.00;97908.55;4385174;80;43634;-80
2020/12/04 08:28:32;;;;;;;54.60;24.98;;;;;;;0.53;100.00;97911.91;4385609;81;28574;-78
2020/12/04 08:34:35;;;;;;;54.85;26.60;;;;;;;0.55;100.00;97904.08;4389288;80;28572;-78
2020/12/04 08:40:45;;;;;;;61.02;26.48;;;;;;;0.64;100.00;97906.08;4396531;80;43232;-78
2020/12/04 08:46:46;;;;;;;62.53;28.25;;;;;;;0.71;100.00;97890.23;4403792;80;28944;-79
2020/12/04 08:52:55;;;;;;;55.10;25.45;;;;;;;0.90;100.00;97902.45;4380561;80;28589;-79
2020/12/04 08:58:57;;;;;;;48.50;23.47;;;;;;;0.91;100.00;97907.52;4309063;81;44452;-78
2020/12/04 09:04:59;;;;;;;55.05;26.00;;;;;;;1.22;100.00;97928.73;4346979;81;28646;-79
2020/12/04 09:11:01;;;;;;;51.08;25.30;;;;;;;1.22;100.00;97928.73;4352760;80;28594;-76
2020/12/04 09:17:03;;;;;;;56.63;25.02;;;;;;;1.53;100.00;97900.91;4319771;81;28570;-77
2020/12/04 09:23:05;;;;;;;54.48;25.55;;;;;;;1.95;100.00;97889.34;4340611;80;28558;-76
2020/12/04 09:29:08;;;;;;;51.08;24.23;;;;;;;2.23;100.00;97887.80;4312653;80;28596;-81
2020/12/04 09:35:11;;;;;;;53.40;24.12;;;;;;;2.60;100.00;97881.23;4352092;80;28607;-80
2020/12/04 09:41:14;;;;;;;49.15;23.77;;;;;;;2.70;100.00;97871.49;4356742;80;28627;-78
2020/12/04 09:47:21;;;;;;;58.95;25.75;;;;;;;3.00;100.00;97873.14;4350155;81;28566;-75
2020/12/04 09:53:51;;;;;;;54.30;25.97;;;;;;;3.17;100.00;97870.81;4380236;79;198587;-74
2020/12/04 09:59:58;;;;;;;59.45;27.52;;;;;;;3.31;100.00;97868.08;4290229;81;28644;-81
2020/12/04 10:06:05;;;;;;;57.33;26.82;;;;;;;3.28;100.00;97852.57;4304382;81;28598;-78
2020/12/04 10:12:17;;;;;;;54.53;24.18;;;;;;;3.24;100.00;97845.53;4277413;81;28571;-75
2020/12/04 10:18:24;;;;;;;47.53;23.15;;;;;;;3.23;100.00;97817.84;4290569;82;28590;-75
2020/12/04 10:24:35;;;;;;;58.48;23.65;;;;;;;3.46;100.00;97804.84;4259936;82;28566;-75
2020/12/04 10:30:43;;;;;;;58.38;23.27;;;;;;;3.65;100.00;97810.23;4271166;82;28629;-75
2020/12/04 10:36:47;;;;;;;55.80;24.07;;;;;;;3.72;100.00;97800.88;4290603;82;28585;-75
2020/12/04 10:42:52;;;;;;;52.70;23.83;;;;;;;3.98;100.00;97792.35;4284807;82;28570;-74
2020/12/04 10:48:58;;;;;;;53.50;23.07;;;;;;;4.11;100.00;97786.89;4261928;81;28640;-75
2020/12/04 10:55:06;;;;;;;30.85;15.30;;;;;;;4.43;100.00;97779.31;4201987;83;28551;-75
2020/12/04 11:01:16;;;;;;;20.03;9.43;;;;;;;4.88;100.00;97780.83;4132086;84;28555;-76
2020/12/04 11:07:23;;;;;;;14.28;6.67;;;;;;;5.65;100.00;97775.30;4200901;83;28568;-75
2020/12/04 11:13:31;;;;;;;12.28;5.87;;;;;;;6.01;100.00;97767.31;4229791;83;28537;-75
2020/12/04 11:19:38;;;;;;;8.60;4.90;;;;;;;6.45;100.00;97770.93;4170875;84;28574;-76
2020/12/04 11:25:50;;;;;;;9.38;4.67;;;;;;;6.75;100.00;97760.58;4134587;85;42749;-76
2020/12/04 11:31:58;;;;;;;8.53;4.30;;;;;;;6.98;100.00;97732.96;4147843;84;28552;-83
2020/12/04 11:38:06;;;;;;;9.95;4.08;;;;;;;7.21;100.00;97724.53;4128997;84;28542;-74
2020/12/04 11:44:12;;;;;;;10.95;4.33;;;;;;;7.43;100.00;97698.95;4166912;83;28556;-74
2020/12/04 11:50:17;;;;;;;6.22;3.72;;;;;;;7.49;100.00;97722.84;4134094;84;28643;-74
2020/12/04 11:56:32;;;;;;;7.30;3.35;;;;;;;7.52;100.00;97706.31;4099855;85;28551;-75
2020/12/04 12:08:58;;;;;;;9.08;3.60;;;;;;;7.75;100.00;97675.06;4375594;78;86779;-77
2020/12/04 12:15:00;;;;;;;7.55;3.95;;;;;;;7.86;100.00;97676.55;4362892;81;28555;-80
2020/12/04 12:21:02;;;;;;;8.68;4.33;;;;;;;8.06;100.00;97672.01;4363728;81;28544;-79
2020/12/04 12:27:22;;;;;;;7.47;4.35;;;;;;;8.27;100.00;97685.11;4364578;80;28561;-78
2020/12/04 12:33:25;;;;;;;6.45;3.67;;;;;;;8.43;100.00;97710.75;4351356;81;28629;-79
2020/12/04 12:39:27;;;;;;;7.53;3.80;;;;;;;8.50;100.00;97702.82;4368266;81;28578;-79
2020/12/04 12:45:30;;;;;;;6.10;3.83;;;;;;;8.60;100.00;97691.42;4166704;83;28556;-79
2020/12/04 12:51:32;;;;;;;7.90;4.42;;;;;;;8.67;100.00;97698.44;4239113;82;28544;-79
2020/12/04 12:57:34;;;;;;;7.78;4.53;;;;;;;8.68;100.00;97692.84;4253012;82;28674;-79
2020/12/04 13:03:36;;;;;;;8.28;4.97;;;;;;;8.60;100.00;97724.92;4257689;82;28570;-79
2020/12/04 13:09:40;;;;;;;8.08;4.97;;;;;;;8.56;100.00;97745.21;4285953;82;28595;-79
2020/12/04 13:15:49;;;;;;;8.00;4.47;;;;;;;8.48;100.00;97749.62;4280631;82;28609;-78
2020/12/04 13:28:00;;;;;;;6.95;3.45;;;;;;;8.41;100.00;97749.03;4261367;82;28580;-76
2020/12/04 13:34:04;;;;;;;7.87;4.55;;;;;;;8.51;100.00;97743.83;4228448;82;28603;-78
2020/12/04 13:40:06;;;;;;;7.17;4.42;;;;;;;8.44;100.00;97757.38;4262386;82;28550;-80
2020/12/04 13:46:09;;;;;;;8.08;4.17;;;;;;;8.42;100.00;97749.30;4257961;82;28614;-80
2020/12/04 13:52:11;;;;;;;7.22;4.10;;;;;;;8.35;100.00;97735.55;4221543;83;28607;-81
2020/12/04 13:58:13;;;;;;;12.03;4.80;;;;;;;8.25;100.00;97743.45;4222841;83;29041;-80
2020/12/04 14:04:16;;;;;;;8.18;4.40;;;;;;;8.15;100.00;97751.35;4226787;82;28563;-79
2020/12/04 14:10:22;;;;;;;7.28;3.95;;;;;;;8.01;100.00;97748.21;4184969;84;28554;-80
2020/12/04 14:16:26;;;;;;;9.18;5.05;;;;;;;7.89;100.00;97749.67;4185019;84;28614;-78
2020/12/04 14:22:28;;;;;;;7.37;4.17;;;;;;;7.82;100.00;97752.52;4185161;84;28587;-81
2020/12/04 14:28:35;;;;;;;11.08;5.05;;;;;;;7.83;100.00;97754.64;4154393;84;28653;-78
2020/12/04 14:34:44;;;;;;;10.88;5.22;;;;;;;7.64;100.00;97758.39;4150682;86;28557;-77
2020/12/04 14:40:49;;;;;;;8.23;4.55;;;;;;;7.43;100.00;97775.95;4190941;84;28590;-79
2020/12/04 14:47:01;;;;;;;9.23;4.97;;;;;;;7.18;100.00;97787.84;4142810;85;28567;-78
2020/12/04 14:53:03;;;;;;;8.55;4.03;;;;;;;6.92;100.00;97771.31;4186891;84;28628;-79
2020/12/04 14:59:05;;;;;;;8.80;4.12;;;;;;;6.88;100.00;97779.53;4216767;84;28546;-79
2020/12/04 15:05:13;;;;;;;7.37;4.33;;;;;;;6.78;100.00;97785.50;4206776;83;28591;-79
2020/12/04 15:11:15;;;;;;;8.83;4.72;;;;;;;6.65;100.00;97789.76;4244706;82;28607;-80
2020/12/04 15:17:17;;;;;;;7.15;4.05;;;;;;;6.41;100.00;97797.83;4244270;83;28612;-78
2020/12/04 15:23:22;;;;;;;6.97;3.65;;;;;;;6.32;100.00;97815.24;4244138;83;28597;-79
2020/12/04 15:29:24;;;;;;;11.15;5.45;;;;;;;6.27;100.00;97816.77;4249263;82;43273;-79
2020/12/04 15:35:28;;;;;;;11.48;5.55;;;;;;;6.44;100.00;97828.59;4226159;83;28553;-80
2020/12/04 15:41:30;;;;;;;11.90;6.55;;;;;;;6.31;100.00;97834.47;4330968;82;28593;-79
2020/12/04 15:47:36;;;;;;;14.33;7.42;;;;;;;6.17;100.00;97843.23;4352429;80;28591;-80
2020/12/04 15:53:39;;;;;;;11.85;6.22;;;;;;;6.01;100.00;97850.03;4267485;82;28563;-79
2020/12/04 15:59:41;;;;;;;12.90;6.33;;;;;;;5.94;100.00;97875.48;4281328;81;28579;-80
2020/12/04 16:05:44;;;;;;;13.22;7.17;;;;;;;5.92;100.00;97871.42;4281070;82;28554;-77
2020/12/04 16:11:50;;;;;;;14.18;7.05;;;;;;;5.85;100.00;97876.33;4251671;82;28647;-75
2020/12/04 16:17:54;;;;;;;9.80;5.20;;;;;;;5.76;100.00;97881.70;4248091;82;28632;-76
2020/12/04 16:24:00;;;;;;;12.47;5.80;;;;;;;5.71;100.00;97877.05;4182992;82;28654;-75
2020/12/04 16:30:05;;;;;;;13.32;7.03;;;;;;;5.68;100.00;97879.38;4220147;82;28945;-76
2020/12/04 16:36:07;;;;;;;13.45;7.17;;;;;;;5.68;100.00;97884.71;4208019;82;28639;-75
2020/12/04 16:42:09;;;;;;;12.47;7.10;;;;;;;5.60;100.00;97883.16;4243859;82;28642;-75
2020/12/04 16:48:15;;;;;;;12.47;6.53;;;;;;;5.45;100.00;97894.23;4235834;82;28600;-75
2020/12/04 16:54:17;;;;;;;11.08;5.37;;;;;;;5.36;100.00;97899.58;4220985;82;28555;-76
2020/12/04 17:00:20;;;;;;;13.88;7.10;;;;;;;5.31;100.00;97918.94;4251247;82;28554;-76
2020/12/04 17:06:26;;;;;;;18.87;9.90;;;;;;;5.31;100.00;97938.92;4286531;82;28567;-75
2020/12/04 17:12:28;;;;;;;17.00;8.48;;;;;;;5.41;100.00;97943.72;4278800;82;28642;-76
2020/12/04 17:18:30;;;;;;;17.73;8.13;;;;;;;5.38;100.00;97946.84;4261116;82;28586;-75
2020/12/04 17:24:32;;;;;;;13.45;7.10;;;;;;;5.30;100.00;97943.43;4260138;83;28623;-76
2020/12/04 17:30:34;;;;;;;14.25;7.60;;;;;;;5.34;100.00;97948.30;4309757;81;28663;-78
2020/12/04 17:36:36;;;;;;;14.43;7.70;;;;;;;5.29;100.00;97948.47;4203851;83;28593;-77
2020/12/04 17:42:42;;;;;;;18.37;9.50;;;;;;;5.15;100.00;97949.64;4214720;83;28613;-80
2020/12/04 17:48:45;;;;;;;18.45;9.28;;;;;;;5.01;100.00;97961.79;4325313;81;28578;-79
2020/12/04 17:54:48;;;;;;;15.70;8.53;;;;;;;4.86;100.00;97970.67;4347340;81;28737;-80
2020/12/04 18:00:50;;;;;;;15.20;7.83;;;;;;;4.92;100.00;97959.11;4354956;82;28564;-79
2020/12/04 18:07:04;;;;;;;18.40;9.08;;;;;;;4.95;100.00;97963.20;4340646;81;28607;-78
2020/12/04 18:13:08;;;;;;;17.45;8.88;;;;;;;4.87;100.00;97963.77;4309194;81;28789;-79
2020/12/04 18:19:11;;;;;;;17.30;9.40;;;;;;;4.86;100.00;97970.67;4392203;80;28599;-79
2020/12/04 18:25:13;;;;;;;19.02;9.95;;;;;;;4.78;100.00;97962.96;4402331;81;28565;-80
2020/12/04 18:31:16;;;;;;;23.15;11.83;;;;;;;4.63;100.00;97968.63;4320242;82;28563;-81
2020/12/04 18:37:18;;;;;;;21.05;10.72;;;;;;;4.48;100.00;97992.41;4249425;82;28643;-74
2020/12/04 18:43:20;;;;;;;22.32;11.38;;;;;;;4.39;100.00;97987.86;4257774;82;28581;-74
2020/12/04 18:49:25;;;;;;;21.48;11.00;;;;;;;4.33;100.00;97987.41;4360599;80;28581;-74
2020/12/04 18:55:27;;;;;;;19.75;10.30;;;;;;;4.33;100.00;97978.09;4284455;82;28613;-74
2020/12/04 19:01:32;;;;;;;20.02;10.00;;;;;;;4.38;100.00;97988.09;4202198;83;28651;-74
2020/12/04 19:07:34;;;;;;;25.43;11.20;;;;;;;4.33;100.00;97988.20;4280361;82;28578;-75
2020/12/04 19:13:37;;;;;;;25.00;11.83;;;;;;;4.26;100.00;97967.47;4286590;82;28611;-75
2020/12/04 19:19:39;;;;;;;18.55;9.48;;;;;;;4.21;100.00;97977.14;4361065;81;28609;-74
2020/12/04 19:25:42;;;;;;;15.90;9.13;;;;;;;4.19;100.00;97990.14;4361929;80;28602;-73
2020/12/04 19:31:45;;;;;;;25.52;10.93;;;;;;;4.27;100.00;97987.76;4362674;81;28646;-74
2020/12/04 19:37:47;;;;;;;23.55;11.08;;;;;;;4.47;100.00;97982.77;4357305;80;28653;-75
2020/12/04 19:43:49;;;;;;;20.25;9.88;;;;;;;4.51;100.00;97978.66;4360826;81;28669;-76
2020/12/04 19:49:52;;;;;;;19.42;8.38;;;;;;;4.49;100.00;97989.22;4360270;81;28555;-74
2020/12/04 19:55:56;;;;;;;17.57;9.40;;;;;;;4.62;100.00;97998.95;4361459;80;28625;-74
2020/12/04 20:02:00;;;;;;;16.93;9.03;;;;;;;4.73;100.00;97998.23;4290370;81;28585;-74
2020/12/04 20:08:03;;;;;;;20.62;9.70;;;;;;;4.68;100.00;98013.53;4274649;82;28582;-74
2020/12/04 20:14:06;;;;;;;23.22;10.82;;;;;;;4.41;100.00;98017.72;4276357;82;28690;-73
2020/12/04 20:20:08;;;;;;;19.50;10.00;;;;;;;3.95;100.00;98016.99;4178716;83;28569;-73
2020/12/04 20:26:10;;;;;;;21.15;9.53;;;;;;;3.97;100.00;98017.62;4153552;83;28587;-73
2020/12/04 20:32:12;;;;;;;18.30;7.97;;;;;;;3.95;100.00;98023.64;4207570;82;28584;-72
2020/12/04 20:38:14;;;;;;;15.93;8.30;;;;;;;3.97;100.00;98033.58;4258839;82;28638;-73
2020/12/04 20:44:17;;;;;;;16.23;8.60;;;;;;;3.95;100.00;98036.94;4241315;82;28581;-74
2020/12/04 20:50:19;;;;;;;19.35;9.23;;;;;;;4.10;100.00;98038.52;4340139;80;28540;-74
2020/12/04 20:56:21;;;;;;;19.40;9.73;;;;;;;4.18;100.00;98029.75;4360600;81;28609;-74
2020/12/04 21:02:23;;;;;;;16.90;9.40;;;;;;;4.23;100.00;98054.92;4339048;80;28548;-73
2020/12/04 21:08:25;;;;;;;17.70;8.73;;;;;;;4.12;100.00;98061.22;4327453;81;28571;-74
2020/12/04 21:14:27;;;;;;;17.32;8.58;;;;;;;4.12;100.00;98053.74;4287648;81;28602;-73
2020/12/04 21:20:29;;;;;;;17.17;7.80;;;;;;;3.97;100.00;98048.20;4305634;81;28641;-73
2020/12/04 21:26:31;;;;;;;18.55;9.40;;;;;;;3.98;100.00;98056.98;4308112;82;28675;-73
2020/12/04 21:32:34;;;;;;;18.80;9.98;;;;;;;4.04;100.00;98054.28;4250301;82;28600;-74
2020/12/04 21:38:36;;;;;;;19.02;10.08;;;;;;;3.88;100.00;98058.25;4296825;81;28582;-74
2020/12/04 21:44:38;;;;;;;24.35;11.35;;;;;;;3.89;100.00;98069.72;4306728;83;28613;-74
2020/12/04 21:50:44;;;;;;;22.05;9.90;;;;;;;3.92;100.00;98074.60;4308418;82;28560;-74
2020/12/04 21:56:56;;;;;;;21.55;10.45;;;;;;;4.03;100.00;98075.80;4300525;81;28617;-75
2020/12/04 22:03:00;;;;;;;20.25;9.43;;;;;;;4.24;100.00;98065.86;4259837;81;28628;-75
2020/12/04 22:09:02;;;;;;;21.02;10.25;;;;;;;4.40;100.00;98073.84;4242661;82;28576;-76
2020/12/04 22:15:05;;;;;;;22.87;10.20;;;;;;;4.37;100.00;98072.42;4237973;82;28558;-76
2020/12/04 22:21:07;;;;;;;19.42;9.33;;;;;;;4.23;100.00;98077.54;4242391;82;28538;-76
2020/12/04 22:27:09;;;;;;;18.85;10.03;;;;;;;4.08;100.00;98069.84;4247403;82;28546;-76
2020/12/04 22:33:11;;;;;;;16.73;8.50;;;;;;;4.18;100.00;98082.17;4240217;82;28588;-76
2020/12/04 22:39:13;;;;;;;18.65;9.03;;;;;;;4.30;100.00;98079.63;4233259;82;28596;-76
2020/12/04 22:45:15;;;;;;;17.35;8.55;;;;;;;4.44;100.00;98083.85;4234425;82;28623;-75
2020/12/04 22:57:37;;;;;;;17.02;8.65;;;;;;;4.85;100.00;98076.38;4384517;79;85313;-75
2020/12/04 23:03:39;;;;;;;19.77;9.75;;;;;;;4.86;100.00;98088.66;4312530;81;28623;-75
2020/12/04 23:09:41;;;;;;;21.73;10.00;;;;;;;4.92;100.00;98084.31;4328184;80;28622;-75
2020/12/04 23:15:44;;;;;;;19.92;9.83;;;;;;;4.91;100.00;98092.53;4311698;80;28587;-75
2020/12/04 23:21:49;;;;;;;20.80;9.98;;;;;;;5.01;100.00;98080.34;4320620;80;28661;-76
2020/12/04 23:27:51;;;;;;;20.08;10.10;;;;;;;5.14;100.00;98083.41;4347524;81;28658;-75
2020/12/04 23:33:53;;;;;;;21.55;9.75;;;;;;;5.14;100.00;98082.08;4347848;80;28581;-75
2020/12/04 23:39:55;;;;;;;19.17;9.18;;;;;;;5.02;100.00;98074.51;4300449;80;28586;-75
2020/12/04 23:45:56;;;;;;;19.00;8.78;;;;;;;4.73;100.00;98078.92;4328416;81;28577;-75
2020/12/04 23:51:59;;;;;;;17.02;8.33;;;;;;;4.79;100.00;98079.09;4327318;80;28569;-75
2020/12/04 23:58:01;;;;;;;16.40;8.20;;;;;;;4.36;100.00;98080.11;4361785;80;28579;-75
